Time;durP1;ratioP1;P1;durP2;ratioP2;P2;SDS_P1;SDS_P2;PMS_P1;PMS_P2;Temp;Humidity;BMP_temperature;BMP_pressure;BME280_temperature;BME280_humidity;BME280_pressure;Samples;Min_cycle;Max_cycle;Signal;HPM_P1;HPM_P2
2022/11/11 00:00:27;;;;;;;107.17;44.63;;;4.80;99.90;;;;;;4394721;28;659954;-65
2022/11/11 00:03:14;;;;;;;89.87;40.23;;;4.70;99.90;;;;;;4413158;28;659503;-64
2022/11/11 00:06:02;;;;;;;85.23;37.37;;;4.80;99.90;;;;;;4396261;28;658874;-64
2022/11/11 00:08:49;;;;;;;98.43;41.63;;;4.80;99.90;;;;;;4414775;28;658986;-64
2022/11/11 00:11:37;;;;;;;104.30;42.23;;;4.90;99.90;;;;;;4396067;28;658566;-64
2022/11/11 00:14:24;;;;;;;92.10;38.20;;;4.70;99.90;;;;;;4413274;28;660225;-64
2022/11/11 00:26:29;;;;;;;82.13;34.30;;;4.70;99.90;;;;;;4391737;28;658611;-64
2022/11/11 00:29:16;;;;;;;72.43;32.43;;;4.80;99.90;;;;;;4395682;28;658689;-64
2022/11/11 00:38:44;;;;;;;74.57;30.70;;;4.80;99.90;;;;;;4369794;28;659975;-66
2022/11/11 00:41:24;;;;;;;75.23;33.23;;;5.10;99.90;;;;;;4391375;28;659046;-64
2022/11/11 00:44:11;;;;;;;69.83;30.27;;;5.10;99.90;;;;;;4389692;28;658482;-64
2022/11/11 00:53:16;;;;;;;70.25;29.02;;;5.50;99.90;;;;;;4384186;28;658727;-64
2022/11/11 00:56:03;;;;;;;76.90;33.70;;;5.80;99.90;;;;;;4390636;28;660105;-64
2022/11/11 00:58:50;;;;;;;67.03;29.53;;;5.80;99.90;;;;;;4398835;28;659230;-65
2022/11/11 01:01:37;;;;;;;66.20;28.73;;;5.80;99.90;;;;;;4416786;28;658146;-64
2022/11/11 01:04:24;;;;;;;74.90;31.07;;;6.10;99.90;;;;;;4412933;28;658536;-64
2022/11/11 01:07:11;;;;;;;70.50;30.50;;;6.10;99.90;;;;;;4394079;28;658790;-65
2022/11/11 01:10:00;;;;;;;72.30;29.80;;;6.20;99.90;;;;;;4412812;28;660257;-64
2022/11/11 01:12:47;;;;;;;61.50;28.20;;;6.30;99.90;;;;;;4390012;28;660078;-64
2022/11/11 01:15:34;;;;;;;58.57;26.47;;;6.30;99.90;;;;;;4412883;28;659173;-64
2022/11/11 01:18:22;;;;;;;66.07;28.40;;;6.40;99.90;;;;;;4394140;28;658459;-64
2022/11/11 01:21:11;;;;;;;60.00;24.30;;;6.50;99.90;;;;;;4412978;28;659227;-64
2022/11/11 01:23:58;;;;;;;63.60;29.03;;;6.50;99.90;;;;;;4389989;28;659461;-64
2022/11/11 01:26:46;;;;;;;82.83;30.37;;;6.50;99.90;;;;;;4394193;28;658825;-66
2022/11/11 01:29:33;;;;;;;66.93;29.30;;;6.40;99.90;;;;;;4412860;28;659480;-64
2022/11/11 01:32:21;;;;;;;63.43;28.03;;;6.50;99.90;;;;;;4393986;28;658546;-64
2022/11/11 01:35:08;;;;;;;73.23;29.27;;;6.50;99.90;;;;;;4412490;28;659039;-64
2022/11/11 01:37:56;;;;;;;67.97;27.87;;;6.50;99.90;;;;;;4393884;28;658537;-65
2022/11/11 01:40:43;;;;;;;56.10;24.50;;;6.50;99.90;;;;;;4412478;28;660148;-64
2022/11/11 01:43:32;;;;;;;59.53;26.00;;;6.50;99.90;;;;;;4394526;28;659105;-64
2022/11/11 01:46:33;;;;;;;56.37;25.10;;;6.60;99.90;;;;;;4413662;28;658619;-64
2022/11/11 01:49:28;;;;;;;54.97;24.87;;;6.60;99.90;;;;;;4382889;28;658811;-65
2022/11/11 01:52:17;;;;;;;56.47;26.10;;;6.60;99.90;;;;;;4379185;28;659486;-65
2022/11/11 01:55:06;;;;;;;56.27;26.13;;;6.60;99.90;;;;;;4412270;28;658972;-65
2022/11/11 01:57:54;;;;;;;56.87;24.47;;;6.60;99.90;;;;;;4413312;28;659577;-64
2022/11/11 02:00:43;;;;;;;53.60;23.20;;;6.70;99.90;;;;;;4391625;28;659296;-64
2022/11/11 02:03:31;;;;;;;52.10;24.20;;;6.70;99.90;;;;;;4401389;28;659104;-66
2022/11/11 02:06:17;;;;;;;48.77;23.00;;;6.70;99.90;;;;;;4412893;28;659562;-64
2022/11/11 02:09:04;;;;;;;49.57;22.07;;;6.70;99.90;;;;;;4413174;28;659361;-64
2022/11/11 02:14:57;;;;;;;52.00;23.57;;;6.60;99.90;;;;;;4371223;28;658870;-65
2022/11/11 02:17:46;;;;;;;48.73;24.37;;;6.60;99.90;;;;;;4413075;28;658384;-64
2022/11/11 02:20:35;;;;;;;50.03;25.50;;;6.70;99.90;;;;;;4389998;28;660119;-64
2022/11/11 02:23:24;;;;;;;51.37;23.23;;;6.60;99.90;;;;;;4390105;28;660526;-64
2022/11/11 02:26:13;;;;;;;52.30;23.90;;;6.60;99.90;;;;;;4394077;28;659168;-64
2022/11/11 02:29:00;;;;;;;55.90;26.13;;;6.60;99.90;;;;;;4405962;28;658925;-66
2022/11/11 02:31:47;;;;;;;60.77;26.03;;;6.60;99.90;;;;;;4416763;28;659566;-64
2022/11/11 02:34:34;;;;;;;57.63;26.80;;;6.70;99.90;;;;;;4412801;28;658793;-63
2022/11/11 02:37:23;;;;;;;48.57;23.80;;;6.60;99.90;;;;;;4394217;28;659369;-64
2022/11/11 02:40:12;;;;;;;42.13;19.47;;;6.70;99.90;;;;;;4393726;28;658761;-65
2022/11/11 02:43:00;;;;;;;45.00;22.00;;;6.70;99.90;;;;;;4395338;28;659221;-63
2022/11/11 02:45:48;;;;;;;49.30;22.83;;;6.60;99.90;;;;;;4371862;28;659536;-64
2022/11/11 02:48:35;;;;;;;45.83;24.03;;;6.70;99.90;;;;;;4386155;28;658793;-66
2022/11/11 02:51:22;;;;;;;47.53;22.85;;;6.60;99.90;;;;;;4398821;28;658292;-64
2022/11/11 02:54:09;;;;;;;49.40;23.00;;;6.60;99.90;;;;;;4395235;28;659276;-64
2022/11/11 02:57:08;;;;;;;47.80;22.57;;;6.60;99.90;;;;;;4366075;28;658734;-64
2022/11/11 02:59:57;;;;;;;51.17;24.30;;;6.70;99.90;;;;;;4330195;28;658522;-65
2022/11/11 03:02:45;;;;;;;47.77;23.03;;;6.60;99.90;;;;;;4375840;28;658587;-66
2022/11/11 03:05:32;;;;;;;43.73;22.47;;;6.60;99.90;;;;;;4382329;28;658353;-64
2022/11/11 03:08:19;;;;;;;45.47;22.33;;;6.60;99.90;;;;;;4381344;28;659068;-64
2022/11/11 03:11:06;;;;;;;59.00;24.67;;;6.70;99.90;;;;;;4358596;28;659268;-64
2022/11/11 03:13:53;;;;;;;53.37;24.97;;;6.70;99.90;;;;;;4381142;28;659894;-64
2022/11/11 03:19:47;;;;;;;48.03;24.60;;;6.70;99.90;;;;;;4335971;28;659514;-64
2022/11/11 03:22:33;;;;;;;49.60;24.50;;;6.70;99.90;;;;;;4379999;28;658764;-63
2022/11/11 03:28:30;;;;;;;52.30;23.47;;;6.70;99.90;;;;;;4331234;28;658548;-65
2022/11/11 03:31:17;;;;;;;52.63;24.23;;;6.80;99.90;;;;;;4384843;28;658238;-64
2022/11/11 03:34:18;;;;;;;51.30;24.13;;;6.70;99.90;;;;;;4380458;28;658671;-64
2022/11/11 03:40:11;;;;;;;49.90;23.30;;;6.80;99.90;;;;;;4339061;28;658751;-64
2022/11/11 03:42:58;;;;;;;53.37;24.30;;;6.80;99.90;;;;;;4397939;28;659828;-64
2022/11/11 03:45:46;;;;;;;44.60;23.77;;;6.80;99.90;;;;;;4379285;28;659122;-65
2022/11/11 03:48:33;;;;;;;53.03;23.77;;;6.80;99.90;;;;;;4397865;28;659222;-64
2022/11/11 03:51:22;;;;;;;47.63;22.23;;;6.90;99.90;;;;;;4379220;28;659029;-64
2022/11/11 03:54:09;;;;;;;50.70;23.60;;;6.80;99.90;;;;;;4397605;28;659163;-64
2022/11/11 03:57:29;;;;;;;45.88;23.80;;;6.90;99.90;;;;;;4374482;28;659273;-63
2022/11/11 04:00:05;;;;;;;46.33;21.67;;;6.90;99.90;;;;;;4375018;28;658449;-63
2022/11/11 04:12:07;;;;;;;45.67;21.23;;;6.70;99.90;;;;;;4352040;28;659700;-64
2022/11/11 04:17:58;;;;;;;41.87;21.40;;;6.60;99.90;;;;;;4371480;28;658693;-64
2022/11/11 04:23:50;;;;;;;45.60;22.40;;;6.50;99.90;;;;;;4357269;28;658691;-65
2022/11/11 04:26:38;;;;;;;43.33;21.73;;;6.50;99.90;;;;;;4401759;28;658341;-64
2022/11/11 04:29:28;;;;;;;39.93;21.13;;;6.40;99.90;;;;;;4392248;28;659155;-66
2022/11/11 04:35:22;;;;;;;44.50;20.67;;;6.20;99.90;;;;;;4355479;28;658376;-64
2022/11/11 04:41:14;;;;;;;47.80;21.40;;;6.00;99.90;;;;;;4369906;28;658175;-64
2022/11/11 04:47:07;;;;;;;41.80;20.03;;;5.90;99.90;;;;;;4350316;28;659696;-64
2022/11/11 04:49:54;;;;;;;37.37;18.97;;;5.70;99.90;;;;;;4395320;28;658646;-64
2022/11/11 04:52:42;;;;;;;41.37;20.10;;;5.70;99.90;;;;;;4377148;28;658571;-64
2022/11/11 04:58:34;;;;;;;46.40;20.07;;;5.70;99.90;;;;;;4374260;28;658461;-63
2022/11/11 05:04:24;;;;;;;42.63;20.80;;;5.60;99.90;;;;;;4375057;28;658732;-64
2022/11/11 05:10:16;;;;;;;39.23;19.93;;;5.60;99.90;;;;;;4377796;28;659042;-64
2022/11/11 05:22:22;;;;;;;43.57;19.77;;;5.60;99.90;;;;;;4374595;28;659731;-64
2022/11/11 05:25:24;;;;;;;41.67;19.87;;;5.80;99.90;;;;;;4374827;28;659227;-64
2022/11/11 05:28:11;;;;;;;40.17;20.77;;;5.70;99.90;;;;;;4378690;28;659053;-63
2022/11/11 05:30:58;;;;;;;44.10;21.10;;;5.70;99.90;;;;;;4397376;28;659603;-64
2022/11/11 05:33:45;;;;;;;42.03;20.58;;;5.60;99.90;;;;;;4378219;28;658807;-65
2022/11/11 05:36:34;;;;;;;48.37;20.80;;;5.60;99.90;;;;;;4401471;28;659287;-64
2022/11/11 05:39:21;;;;;;;42.30;19.73;;;5.60;99.90;;;;;;4378182;28;658440;-64
2022/11/11 05:42:08;;;;;;;37.20;18.47;;;5.70;99.90;;;;;;4412372;28;660219;-64
2022/11/11 05:44:55;;;;;;;39.40;18.55;;;5.80;99.90;;;;;;4398642;28;659134;-65
2022/11/11 05:47:42;;;;;;;37.17;17.90;;;5.70;99.90;;;;;;4417756;28;659192;-63
2022/11/11 05:50:29;;;;;;;42.70;20.43;;;5.80;99.90;;;;;;4413147;28;659193;-63
2022/11/11 05:53:22;;;;;;;37.47;17.83;;;5.90;99.90;;;;;;4394429;28;659571;-63
2022/11/11 05:56:10;;;;;;;32.67;17.93;;;5.80;99.90;;;;;;4384400;28;658924;-65
2022/11/11 05:58:57;;;;;;;41.95;17.25;;;5.80;99.90;;;;;;4413377;28;659245;-63
2022/11/11 06:01:44;;;;;;;37.37;17.23;;;5.80;99.90;;;;;;4413705;28;658683;-63
2022/11/11 06:04:33;;;;;;;32.10;16.93;;;5.90;99.90;;;;;;4390542;28;660741;-64
2022/11/11 06:07:20;;;;;;;39.80;18.77;;;6.00;99.90;;;;;;4395082;28;658584;-65
2022/11/11 06:13:14;;;;;;;43.63;17.70;;;6.20;99.90;;;;;;4390284;28;658978;-64
2022/11/11 06:16:01;;;;;;;36.70;17.70;;;6.30;99.90;;;;;;4394045;28;658415;-63
2022/11/11 06:18:49;;;;;;;30.80;17.17;;;6.30;99.90;;;;;;4413236;28;659888;-63
2022/11/11 06:24:37;;;;;;;32.57;16.43;;;6.50;99.90;;;;;;4367151;28;659738;-64
2022/11/11 06:27:25;;;;;;;36.33;17.33;;;6.60;99.90;;;;;;4411402;28;658758;-63
2022/11/11 06:30:12;;;;;;;39.40;18.23;;;6.80;99.90;;;;;;4392959;28;660182;-63
2022/11/11 06:33:00;;;;;;;36.67;17.43;;;6.90;99.90;;;;;;4410618;28;658504;-66
2022/11/11 06:35:48;;;;;;;44.30;16.20;;;6.90;99.90;;;;;;4417163;28;658803;-63
2022/11/11 06:38:35;;;;;;;31.57;15.60;;;7.00;99.90;;;;;;4405598;28;659262;-65
2022/11/11 06:41:24;;;;;;;37.13;16.53;;;7.10;99.90;;;;;;4418004;28;658260;-64
2022/11/11 06:44:13;;;;;;;32.60;15.13;;;7.20;99.90;;;;;;4390413;28;658789;-64
2022/11/11 06:47:00;;;;;;;34.93;16.80;;;7.30;99.90;;;;;;4407950;28;658870;-65
2022/11/11 06:49:47;;;;;;;32.78;16.08;;;7.30;99.90;;;;;;4419498;28;658282;-63
2022/11/11 06:52:34;;;;;;;32.47;15.20;;;7.30;99.90;;;;;;4415707;28;659200;-63
2022/11/11 06:55:21;;;;;;;32.10;14.10;;;7.30;99.90;;;;;;4393684;28;658897;-63
2022/11/11 06:58:09;;;;;;;35.10;15.17;;;7.30;99.90;;;;;;4407548;28;660012;-63
2022/11/11 07:00:57;;;;;;;28.37;13.60;;;7.40;99.90;;;;;;4390733;28;658813;-63
2022/11/11 07:03:45;;;;;;;29.47;15.27;;;7.50;99.90;;;;;;4416180;28;658785;-64
2022/11/11 07:06:32;;;;;;;29.85;14.73;;;7.50;99.90;;;;;;4420338;28;658390;-63
2022/11/11 07:09:19;;;;;;;28.77;14.50;;;7.50;99.90;;;;;;4416123;28;658511;-64
2022/11/11 07:12:06;;;;;;;29.83;14.53;;;7.60;99.90;;;;;;4393084;28;658699;-64
2022/11/11 07:14:53;;;;;;;28.30;13.87;;;7.60;99.90;;;;;;4416353;28;659541;-63
2022/11/11 07:17:42;;;;;;;29.77;13.13;;;7.70;99.90;;;;;;4397094;28;658443;-64
2022/11/11 07:20:30;;;;;;;28.37;14.90;;;7.70;99.90;;;;;;4415927;28;659200;-63
2022/11/11 07:23:17;;;;;;;31.33;14.90;;;8.00;99.90;;;;;;4419687;28;658730;-63
2022/11/11 07:26:04;;;;;;;35.00;13.43;;;8.00;99.90;;;;;;4415597;28;659011;-63
2022/11/11 07:28:51;;;;;;;26.87;13.03;;;8.10;99.90;;;;;;4397138;28;658974;-63
2022/11/11 07:31:39;;;;;;;29.50;13.47;;;8.30;99.90;;;;;;4415913;28;659124;-63
2022/11/11 07:34:27;;;;;;;32.57;13.63;;;8.20;99.90;;;;;;4396591;28;659005;-65
2022/11/11 07:37:14;;;;;;;23.33;11.07;;;8.40;99.90;;;;;;4415600;28;658953;-63
2022/11/11 07:40:01;;;;;;;31.30;14.00;;;8.30;99.90;;;;;;4396762;28;658459;-63
2022/11/11 07:42:48;;;;;;;29.00;13.63;;;8.20;99.90;;;;;;4415252;28;660334;-63
2022/11/11 07:45:35;;;;;;;26.47;12.13;;;8.30;99.90;;;;;;4396520;28;658459;-63
2022/11/11 07:48:22;;;;;;;25.43;13.13;;;8.50;99.90;;;;;;4415379;28;660031;-63
2022/11/11 07:51:11;;;;;;;22.13;12.03;;;8.60;99.90;;;;;;4410297;28;658332;-64
2022/11/11 07:53:58;;;;;;;23.67;12.03;;;8.90;99.90;;;;;;4415145;28;658765;-63
2022/11/11 07:56:46;;;;;;;28.00;12.90;;;9.10;99.90;;;;;;4396293;28;658932;-64
2022/11/11 07:59:33;;;;;;;31.43;13.13;;;8.70;99.90;;;;;;4402362;28;659681;-63
2022/11/11 08:02:20;;;;;;;32.07;14.23;;;8.90;99.90;;;;;;4389441;28;658750;-64
2022/11/11 08:05:08;;;;;;;30.47;13.53;;;9.00;99.90;;;;;;4401920;28;658622;-63
2022/11/11 08:07:58;;;;;;;24.30;13.17;;;9.20;99.90;;;;;;4379008;28;658437;-64
2022/11/11 08:10:45;;;;;;;28.20;13.33;;;9.60;99.90;;;;;;4378733;28;658676;-63
2022/11/11 08:13:41;;;;;;;23.70;13.20;;;9.90;99.90;;;;;;4397600;28;659411;-63
2022/11/11 08:16:28;;;;;;;24.53;12.23;;;10.00;99.90;;;;;;4374894;28;658732;-62
2022/11/11 08:19:15;;;;;;;23.97;12.23;;;10.10;99.90;;;;;;4386559;28;660390;-64
2022/11/11 08:22:03;;;;;;;23.47;11.83;;;10.10;99.90;;;;;;4400407;28;659270;-62
2022/11/11 08:24:51;;;;;;;31.33;13.30;;;10.00;99.90;;;;;;4380976;28;659563;-64
2022/11/11 08:27:38;;;;;;;31.10;13.53;;;10.20;99.90;;;;;;4396199;28;660866;-62
2022/11/11 08:30:26;;;;;;;24.87;13.13;;;10.00;99.90;;;;;;4377170;28;659827;-63
2022/11/11 08:33:13;;;;;;;29.00;14.47;;;10.30;99.90;;;;;;4400294;28;660928;-63
2022/11/11 08:36:01;;;;;;;26.77;13.20;;;10.10;99.90;;;;;;4386116;28;659780;-65
2022/11/11 08:38:48;;;;;;;24.83;10.43;;;10.50;99.90;;;;;;4400260;28;660835;-62
2022/11/11 08:41:36;;;;;;;27.27;13.25;;;10.90;99.90;;;;;;4381641;28;659446;-63
2022/11/11 08:44:24;;;;;;;23.57;12.00;;;10.90;99.90;;;;;;4394876;28;659447;-63
2022/11/11 08:47:11;;;;;;;25.30;13.57;;;11.10;99.90;;;;;;4376307;28;659697;-63
2022/11/11 08:49:58;;;;;;;26.30;12.83;;;10.90;99.90;;;;;;4398713;28;661576;-62
2022/11/11 08:52:46;;;;;;;32.20;15.00;;;10.60;99.90;;;;;;4382027;28;660012;-64
2022/11/11 08:55:33;;;;;;;29.50;14.53;;;10.40;99.90;;;;;;4394818;28;660436;-63
2022/11/11 08:58:24;;;;;;;33.70;15.60;;;10.50;99.90;;;;;;4376641;28;659729;-63
2022/11/11 09:01:12;;;;;;;25.17;13.67;;;10.40;99.90;;;;;;4373949;28;662299;-63
2022/11/11 09:03:59;;;;;;;24.73;13.23;;;11.10;99.90;;;;;;4395877;28;659832;-63
2022/11/11 09:06:47;;;;;;;16.60;8.57;;;11.00;99.90;;;;;;4377845;28;660266;-62
2022/11/11 09:09:34;;;;;;;27.13;12.20;;;10.70;99.90;;;;;;4395564;28;659579;-62
2022/11/11 09:12:21;;;;;;;28.47;13.90;;;10.50;99.90;;;;;;4377536;28;660233;-62
2022/11/11 09:15:10;;;;;;;25.70;13.87;;;10.50;99.90;;;;;;4398421;28;659509;-62
2022/11/11 09:17:57;;;;;;;24.73;14.17;;;10.90;99.90;;;;;;4378118;28;661557;-62
2022/11/11 09:20:44;;;;;;;25.80;14.13;;;11.30;99.90;;;;;;4396380;28;660105;-62
2022/11/11 09:23:31;;;;;;;30.27;15.07;;;11.40;99.90;;;;;;4377651;28;660758;-63
2022/11/11 09:26:18;;;;;;;30.57;15.73;;;11.40;99.90;;;;;;4396084;28;661014;-63
2022/11/11 09:29:05;;;;;;;28.33;14.70;;;11.40;99.90;;;;;;4377243;28;659745;-64
2022/11/11 09:31:54;;;;;;;30.80;14.07;;;11.10;99.90;;;;;;4396236;28;661412;-63
2022/11/11 09:34:41;;;;;;;28.43;12.67;;;11.00;99.90;;;;;;4376722;28;659750;-63
2022/11/11 09:37:28;;;;;;;30.70;14.07;;;11.30;99.90;;;;;;4399813;28;661049;-62
2022/11/11 09:40:16;;;;;;;23.48;11.73;;;11.20;99.90;;;;;;4377278;28;659778;-64
2022/11/11 09:43:05;;;;;;;22.53;11.03;;;11.00;99.90;;;;;;4412301;28;660499;-63
2022/11/11 09:46:01;;;;;;;27.73;11.27;;;10.90;99.90;;;;;;4393711;28;661052;-62
2022/11/11 09:48:57;;;;;;;18.35;9.60;;;10.40;99.90;;;;;;4381684;28;660468;-62
2022/11/11 09:51:48;;;;;;;24.03;9.37;;;10.80;99.90;;;;;;4386741;28;658895;-63
2022/11/11 09:54:37;;;;;;;20.05;9.80;;;10.90;99.90;;;;;;4393577;28;658816;-63
2022/11/11 09:57:27;;;;;;;19.80;9.00;;;11.00;99.90;;;;;;4409172;28;658658;-62
2022/11/11 10:00:16;;;;;;;15.13;8.90;;;11.10;99.90;;;;;;4382052;28;658640;-64
2022/11/11 10:03:08;;;;;;;17.17;8.10;;;11.10;99.90;;;;;;4413051;28;660087;-62
2022/11/11 10:05:59;;;;;;;21.10;8.73;;;11.40;99.90;;;;;;4365367;28;658628;-63
2022/11/11 10:08:48;;;;;;;20.33;8.80;;;11.20;99.90;;;;;;4394486;28;659726;-63
2022/11/11 10:11:46;;;;;;;18.27;9.60;;;10.90;99.90;;;;;;4394325;28;658637;-63
2022/11/11 10:14:34;;;;;;;22.30;10.13;;;10.80;99.90;;;;;;4390462;28;659199;-63
2022/11/11 10:17:28;;;;;;;23.17;10.27;;;10.80;99.90;;;;;;4393234;28;660743;-63
2022/11/11 10:20:18;;;;;;;22.40;10.77;;;10.70;99.90;;;;;;4393301;28;659655;-64
2022/11/11 10:23:13;;;;;;;20.17;10.47;;;10.30;99.90;;;;;;4395425;28;659554;-64
2022/11/11 10:26:03;;;;;;;27.40;10.97;;;10.40;99.90;;;;;;4363988;28;660286;-64
2022/11/11 10:28:51;;;;;;;24.23;11.30;;;10.60;99.90;;;;;;4393032;28;659644;-63
2022/11/11 10:31:38;;;;;;;22.40;11.50;;;10.60;99.90;;;;;;4411900;28;661216;-63
2022/11/11 10:34:25;;;;;;;25.20;11.43;;;10.40;99.90;;;;;;4403641;28;659744;-63
2022/11/11 10:37:17;;;;;;;27.85;12.70;;;10.80;99.90;;;;;;4415735;28;660082;-63
2022/11/11 10:40:07;;;;;;;26.27;11.67;;;11.10;99.90;;;;;;4389070;28;659891;-63
2022/11/11 10:42:54;;;;;;;27.97;12.70;;;11.00;99.90;;;;;;4388754;28;659679;-63
2022/11/11 10:45:44;;;;;;;23.03;11.27;;;10.90;99.90;;;;;;4392448;28;660538;-63
2022/11/11 10:48:36;;;;;;;27.33;11.37;;;11.70;99.90;;;;;;4392808;28;660953;-62
2022/11/11 10:51:24;;;;;;;28.90;12.30;;;11.90;99.90;;;;;;4388370;28;660239;-63
2022/11/11 10:54:13;;;;;;;23.57;11.30;;;11.40;99.90;;;;;;4392234;28;659843;-63
2022/11/11 10:57:03;;;;;;;24.80;11.80;;;11.90;99.90;;;;;;4392036;28;659917;-64
2022/11/11 10:59:51;;;;;;;28.00;11.20;;;12.90;99.90;;;;;;4402600;28;659945;-64
2022/11/11 11:02:41;;;;;;;26.00;11.30;;;13.00;99.90;;;;;;4410442;28;660611;-63
2022/11/11 11:05:31;;;;;;;26.20;11.77;;;12.50;99.90;;;;;;4387750;28;660008;-62
2022/11/11 11:08:20;;;;;;;26.67;12.50;;;11.80;99.90;;;;;;4387941;28;660040;-63
2022/11/11 11:11:09;;;;;;;24.23;11.70;;;12.00;99.90;;;;;;4383039;28;661065;-62
2022/11/11 11:14:00;;;;;;;19.00;8.60;;;11.50;99.90;;;;;;4391451;28;659680;-62
2022/11/11 11:16:50;;;;;;;25.07;10.93;;;11.90;99.90;;;;;;4389782;28;658754;-63
2022/11/11 11:19:37;;;;;;;20.70;9.33;;;11.40;99.90;;;;;;4387484;28;661087;-61
2022/11/11 11:22:33;;;;;;;23.33;11.07;;;11.50;99.90;;;;;;4411478;28;659814;-63
2022/11/11 11:25:21;;;;;;;21.87;11.77;;;11.40;99.90;;;;;;4368805;28;660855;-65
2022/11/11 11:28:09;;;;;;;22.97;11.20;;;11.40;99.90;;;;;;4416280;28;660132;-62
2022/11/11 11:31:01;;;;;;;19.80;9.43;;;11.90;99.90;;;;;;4394248;28;659672;-62
2022/11/11 11:33:53;;;;;;;23.47;12.03;;;12.40;99.90;;;;;;4391762;28;660408;-64
2022/11/11 11:36:40;;;;;;;26.85;11.23;;;12.70;99.90;;;;;;4371843;28;660030;-64
2022/11/11 11:39:34;;;;;;;23.07;10.73;;;12.50;99.90;;;;;;4417710;28;659744;-62
2022/11/11 11:42:29;;;;;;;23.23;11.33;;;12.60;99.90;;;;;;4368058;28;660089;-63
2022/11/11 11:45:21;;;;;;;23.37;11.83;;;12.20;99.90;;;;;;4367876;28;660539;-62
2022/11/11 11:48:16;;;;;;;22.23;11.07;;;12.60;99.90;;;;;;4390520;28;660902;-63
2022/11/11 11:51:15;;;;;;;19.33;10.65;;;12.70;99.90;;;;;;4389147;28;660148;-63
2022/11/11 11:54:25;;;;;;;20.97;10.00;;;12.30;99.90;;;;;;4390457;28;659899;-63
2022/11/11 11:57:19;;;;;;;10.80;4.50;;;12.60;99.90;;;;;;4365839;28;660399;-62
2022/11/11 12:00:12;;;;;;;18.77;7.83;;;12.60;99.90;;;;;;4391368;28;659587;-63
2022/11/11 12:03:23;;;;;;;12.40;4.63;;;12.60;99.90;;;;;;4386549;28;659307;-63
2022/11/11 12:06:13;;;;;;;19.85;7.25;;;12.60;99.90;;;;;;4368863;28;659468;-64
2022/11/11 12:09:06;;;;;;;11.97;5.80;;;12.20;99.90;;;;;;4396245;28;658453;-63
2022/11/11 12:11:57;;;;;;;16.73;7.53;;;12.20;99.90;;;;;;4392829;28;660147;-62
2022/11/11 12:14:52;;;;;;;18.10;7.30;;;11.80;99.90;;;;;;4392274;28;659264;-63
2022/11/11 12:17:45;;;;;;;16.50;7.77;;;11.70;99.90;;;;;;4392578;28;658458;-62
2022/11/11 12:20:35;;;;;;;19.33;8.10;;;11.90;99.90;;;;;;4369320;28;659272;-63
2022/11/11 12:23:41;;;;;;;25.33;8.53;;;11.90;99.90;;;;;;4391991;28;659664;-63
2022/11/11 12:26:35;;;;;;;16.23;7.07;;;12.00;99.90;;;;;;4389580;28;659381;-62
2022/11/11 12:29:38;;;;;;;17.07;8.63;;;12.00;99.90;;;;;;4367632;28;660426;-63
2022/11/11 12:32:37;;;;;;;18.73;7.00;;;11.90;99.90;;;;;;4371736;28;659805;-62
2022/11/11 12:35:39;;;;;;;17.13;7.87;;;12.10;99.90;;;;;;4392226;28;658684;-62
2022/11/11 12:38:42;;;;;;;18.90;8.50;;;12.00;99.90;;;;;;4391920;28;659472;-63
2022/11/11 12:41:39;;;;;;;15.03;8.20;;;11.80;99.90;;;;;;4391667;28;659180;-62
2022/11/11 12:44:30;;;;;;;20.37;8.77;;;11.90;99.90;;;;;;4393923;28;659326;-63
2022/11/11 12:47:27;;;;;;;18.43;8.77;;;11.80;99.90;;;;;;4391598;28;659955;-62
2022/11/11 12:50:18;;;;;;;20.77;9.03;;;11.90;99.90;;;;;;4391528;28;658488;-63
2022/11/11 12:53:16;;;;;;;20.67;8.57;;;11.70;99.90;;;;;;4372601;28;659332;-62
2022/11/11 12:56:08;;;;;;;22.17;8.53;;;11.70;99.90;;;;;;4391615;28;659797;-63
2022/11/11 12:58:57;;;;;;;17.90;8.37;;;11.60;99.90;;;;;;4367469;28;659232;-64
2022/11/11 13:01:51;;;;;;;16.20;7.70;;;11.60;99.90;;;;;;4413292;28;658626;-62
2022/11/11 13:04:53;;;;;;;19.00;7.97;;;11.60;99.90;;;;;;4390667;28;658962;-62
2022/11/11 13:08:08;;;;;;;19.23;8.33;;;11.60;99.90;;;;;;4372003;28;659480;-63
2022/11/11 13:10:59;;;;;;;14.93;5.87;;;11.40;99.90;;;;;;4363075;28;659003;-64
2022/11/11 13:14:00;;;;;;;20.63;8.60;;;11.50;99.90;;;;;;4392781;28;658744;-62
2022/11/11 13:16:50;;;;;;;19.40;8.07;;;11.50;99.90;;;;;;4367541;28;659088;-62
2022/11/11 13:19:40;;;;;;;22.57;8.30;;;11.50;99.90;;;;;;4390166;28;659624;-63
2022/11/11 13:22:28;;;;;;;18.90;9.00;;;11.50;99.90;;;;;;4389876;28;660135;-63
2022/11/11 13:25:17;;;;;;;15.77;8.27;;;11.50;99.90;;;;;;4403432;28;658826;-64
2022/11/11 13:28:07;;;;;;;22.57;9.20;;;11.60;99.90;;;;;;4410724;28;659045;-64
2022/11/11 13:31:04;;;;;;;21.00;9.57;;;11.50;99.90;;;;;;4412689;28;659109;-62
2022/11/11 13:33:53;;;;;;;18.30;7.60;;;11.50;99.90;;;;;;4394133;28;658763;-64
2022/11/11 13:36:42;;;;;;;16.40;8.53;;;11.50;99.90;;;;;;4394086;28;659258;-64
2022/11/11 13:39:30;;;;;;;17.57;8.60;;;11.60;99.90;;;;;;4413187;28;658681;-62
2022/11/11 13:42:20;;;;;;;25.13;10.27;;;11.60;99.90;;;;;;4390389;28;659650;-62
2022/11/11 13:45:13;;;;;;;16.50;6.70;;;11.70;99.90;;;;;;4389455;28;660524;-62
2022/11/11 13:48:02;;;;;;;18.17;7.97;;;11.60;99.90;;;;;;4371678;28;658558;-63
2022/11/11 13:50:49;;;;;;;13.77;7.17;;;11.40;99.90;;;;;;4413265;28;658947;-63
2022/11/11 13:53:36;;;;;;;13.70;6.13;;;11.50;99.90;;;;;;4394645;28;658695;-63
2022/11/11 13:56:25;;;;;;;20.80;8.02;;;11.50;99.90;;;;;;4413460;28;659504;-63
2022/11/11 13:59:17;;;;;;;17.10;6.90;;;11.40;99.90;;;;;;4390476;28;659881;-63
2022/11/11 14:02:32;;;;;;;14.87;6.07;;;11.30;99.90;;;;;;4385262;28;659151;-64
2022/11/11 14:05:22;;;;;;;16.80;6.82;;;11.30;99.90;;;;;;4390778;28;658424;-62
2022/11/11 14:08:09;;;;;;;14.33;6.53;;;11.10;99.90;;;;;;4390632;28;658733;-62
2022/11/11 14:10:58;;;;;;;15.33;6.57;;;11.20;99.90;;;;;;4394517;28;659078;-63
2022/11/11 14:13:45;;;;;;;13.70;7.03;;;11.30;99.90;;;;;;4404558;28;658820;-63
2022/11/11 14:17:05;;;;;;;14.73;6.15;;;11.30;99.90;;;;;;4417576;28;658532;-62
2022/11/11 14:19:53;;;;;;;14.50;6.67;;;11.30;99.90;;;;;;4296067;28;660231;-62
2022/11/11 14:22:41;;;;;;;13.47;6.47;;;11.20;99.90;;;;;;4335929;28;658779;-64
2022/11/11 14:25:28;;;;;;;12.33;6.63;;;11.00;99.90;;;;;;4385657;28;659878;-62
2022/11/11 14:28:22;;;;;;;14.97;6.73;;;11.00;99.90;;;;;;4394073;28;658701;-63
2022/11/11 14:31:55;;;;;;;20.83;7.43;;;10.90;99.90;;;;;;4390652;28;658853;-62
2022/11/11 14:35:02;;;;;;;18.73;7.27;;;10.80;99.90;;;;;;4367347;28;659949;-62
2022/11/11 14:38:13;;;;;;;11.50;6.33;;;10.70;99.90;;;;;;4390418;28;660072;-62
2022/11/11 14:41:33;;;;;;;16.53;7.33;;;10.60;99.90;;;;;;4371247;28;658631;-64
2022/11/11 14:44:39;;;;;;;17.90;7.53;;;10.50;99.90;;;;;;4367545;28;659267;-62
2022/11/11 14:47:33;;;;;;;20.20;8.03;;;10.30;99.90;;;;;;4363996;28;659827;-63
2022/11/11 14:50:41;;;;;;;16.70;7.83;;;10.30;99.90;;;;;;4370572;28;659760;-65
2022/11/11 14:53:33;;;;;;;21.55;8.43;;;10.20;99.90;;;;;;4389161;28;658700;-63
2022/11/11 14:56:21;;;;;;;17.17;8.10;;;10.10;99.90;;;;;;4367847;28;659059;-62
2022/11/11 14:59:08;;;;;;;16.70;7.83;;;10.10;99.90;;;;;;4408979;28;659306;-62
2022/11/11 15:01:55;;;;;;;19.50;7.80;;;9.90;99.90;;;;;;4399717;28;659492;-64
2022/11/11 15:04:42;;;;;;;19.80;8.10;;;9.90;99.90;;;;;;4421604;28;657163;-62
2022/11/11 15:07:58;;;;;;;27.30;8.90;;;10.00;99.90;;;;;;4417626;28;657828;-64
2022/11/11 15:11:11;;;;;;;28.30;9.80;;;10.00;99.90;;;;;;4372263;28;660249;-63
2022/11/11 15:14:25;;;;;;;21.57;9.57;;;9.90;99.90;;;;;;4392061;28;658460;-63
2022/11/11 15:17:18;;;;;;;23.80;9.47;;;9.80;99.90;;;;;;4394110;28;658009;-63
2022/11/11 15:20:32;;;;;;;23.67;9.93;;;9.80;99.90;;;;;;4375964;28;658135;-65
2022/11/11 15:23:25;;;;;;;29.23;11.43;;;9.70;99.90;;;;;;4394487;28;657571;-63
2022/11/11 15:26:17;;;;;;;27.63;10.20;;;9.60;99.90;;;;;;4370504;28;658695;-63
2022/11/11 15:29:22;;;;;;;25.88;10.45;;;9.50;99.90;;;;;;4389463;28;659140;-65
2022/11/11 15:32:14;;;;;;;21.10;9.90;;;9.40;99.90;;;;;;4392897;28;659372;-63
2022/11/11 15:35:19;;;;;;;22.80;10.20;;;9.30;99.90;;;;;;4371315;28;658078;-63
2022/11/11 15:38:06;;;;;;;24.00;9.63;;;9.30;99.90;;;;;;4369872;28;659519;-62
2022/11/11 15:40:57;;;;;;;22.37;9.60;;;9.30;99.90;;;;;;4416839;28;658591;-63
2022/11/11 15:43:45;;;;;;;23.30;10.33;;;9.30;99.90;;;;;;4394205;28;659358;-63
2022/11/11 15:46:33;;;;;;;26.47;10.10;;;9.10;99.90;;;;;;4392656;28;660255;-63